Flight Track Log - Related Links

Times and Time Zones

All times are in EDT time to prevent confusion due to time zone crossing. See the FDX1254 flight status page for this flight to view local times or setup timezone preferences in your user account.

Time Position Orientation Groundspeed Altitude Reporting Facility
EDT Latitude Longitude Course Direction KTS MPH feet Rate Location/Type
Wed 11:15:47 PM 40.8240 -85.2630 217° Southwest 338 389 11,400  Level FlightAware ADS-B
Wed 11:16:37 PM 40.7650 -85.3280 220° Southwest 352 405 12,800 3,726 Climbing FlightAware ADS-B
Wed 11:17:22 PM 40.7040 -85.3960 220° Southwest 364 419 17,300 4,871 Climbing FlightAware ADS-B
Wed 11:18:02 PM 40.6510 -85.4550 220° Southwest 369 425 19,700 3,388 Climbing FlightAware ADS-B
Wed 11:18:47 PM 40.5910 -85.5210 220° Southwest 375 432 22,100 2,329 Climbing FlightAware ADS-B
Wed 11:19:27 PM 40.5370 -85.5800 220° Southwest 383 441 23,000 1,765 Climbing FlightAware ADS-B
Wed 11:20:12 PM 40.4810 -85.6430 221° Southwest 382 440 24,600 2,753 Climbing FlightAware ADS-B
Wed 11:20:52 PM 40.4250 -85.7040 220° Southwest 374 430 26,900 2,775 Climbing FlightAware ADS-B
Wed 11:21:32 PM 40.3710 -85.7630 220° Southwest 379 436 28,300 2,188 Climbing FlightAware ADS-B
Wed 11:22:17 PM 40.3080 -85.8330 220° Southwest 380 437 30,000 1,553 Climbing FlightAware ADS-B
Wed 11:22:57 PM 40.2590 -85.8850 219° Southwest 379 436 30,500 2,175 Climbing FlightAware ADS-B
Wed 11:23:37 PM 40.2040 -85.9460 220° Southwest 371 427 32,900 2,471 Climbing FlightAware ADS-B
Wed 11:24:22 PM 40.1430 -86.0120 220° Southwest 369 425 34,000 776 Climbing FlightAware ADS-B
Wed 11:25:02 PM 40.0880 -86.0720 220° Southwest 367 422 34,000  Level FlightAware ADS-B
Wed 11:25:47 PM 40.0300 -86.1340 219° Southwest 367 422 34,000  Level FlightAware ADS-B
Wed 11:26:27 PM 39.9790 -86.1910 221° Southwest 365 420 34,000  Level FlightAware ADS-B
Wed 11:27:07 PM 39.9270 -86.2460 219° Southwest 366 421 34,000  Level FlightAware ADS-B
Wed 11:27:52 PM 39.8680 -86.3100 220° Southwest 365 420 34,000  Level FlightAware ADS-B
Wed 11:28:32 PM 39.8150 -86.3650 219° Southwest 368 423 34,000  Level FlightAware ADS-B
Wed 11:29:17 PM 39.7480 -86.4180 211° Southwest 374 430 34,000  Level FlightAware ADS-B
Wed 11:29:57 PM 39.6890 -86.4630 210° Southwest 372 428 34,000  Level FlightAware ADS-B
Wed 11:30:37 PM 39.6320 -86.5060 210° Southwest 370 426 34,000  Level FlightAware ADS-B
Wed 11:31:22 PM 39.5660 -86.5550 210° Southwest 368 423 34,000  Level FlightAware ADS-B
Wed 11:32:02 PM 39.5020 -86.6040 211° Southwest 367 422 34,000  Level FlightAware ADS-B
Wed 11:32:42 PM 39.4470 -86.6460 211° Southwest 364 419 34,000  Level FlightAware ADS-B
Wed 11:33:27 PM 39.3790 -86.6960 210° Southwest 362 417 34,000  Level FlightAware ADS-B
Wed 11:34:07 PM 39.3220 -86.7400 211° Southwest 359 413 34,000  Level FlightAware ADS-B
Wed 11:34:52 PM 39.2560 -86.7890 210° Southwest 357 411 34,000  Level FlightAware ADS-B
Wed 11:35:32 PM 39.2020 -86.8300 210° Southwest 355 409 34,000  Level FlightAware ADS-B
Wed 11:36:12 PM 39.1440 -86.8720 209° Southwest 354 407 34,000  Level FlightAware ADS-B
Wed 11:36:57 PM 39.0790 -86.9210 210° Southwest 353 406 34,000  Level FlightAware ADS-B
Wed 11:37:37 PM 39.0230 -86.9630 210° Southwest 352 405 34,000  Level FlightAware ADS-B
Wed 11:38:22 PM 38.9610 -87.0090 210° Southwest 351 404 34,000  Level FlightAware ADS-B
Wed 11:39:02 PM 38.9040 -87.0510 210° Southwest 351 404 34,000  Level FlightAware ADS-B
Wed 11:39:42 PM 38.8480 -87.0920 210° Southwest 350 403 34,000  Level FlightAware ADS-B
Wed 11:40:27 PM 38.7830 -87.1400 210° Southwest 351 404 34,000  Level FlightAware ADS-B
Wed 11:41:07 PM 38.7270 -87.1820 210° Southwest 352 405 34,000  Level FlightAware ADS-B
Wed 11:41:52 PM 38.6620 -87.2300 210° Southwest 352 405 34,000  Level FlightAware ADS-B
Wed 11:42:32 PM 38.6070 -87.2700 210° Southwest 351 404 34,000  Level FlightAware ADS-B
Wed 11:43:17 PM 38.5420 -87.3170 209° Southwest 352 405 34,000  Level FlightAware ADS-B
Wed 11:43:57 PM 38.4860 -87.3580 210° Southwest 353 406 34,000  Level FlightAware ADS-B
Wed 11:44:42 PM 38.4220 -87.4050 210° Southwest 354 407 34,000  Level FlightAware ADS-B
Wed 11:45:22 PM 38.3660 -87.4460 210° Southwest 356 410 34,000  Level FlightAware ADS-B
Wed 11:46:02 PM 38.3080 -87.4880 210° Southwest 356 410 34,000  Level FlightAware ADS-B
Wed 11:46:47 PM 38.2450 -87.5340 210° Southwest 357 411 34,000  Level FlightAware ADS-B
Wed 11:47:27 PM 38.1840 -87.5780 210° Southwest 359 413 34,000  Level FlightAware ADS-B
Wed 11:48:07 PM 38.1290 -87.6180 210° Southwest 360 414 34,000  Level FlightAware ADS-B
Wed 11:48:52 PM 38.0610 -87.6660 209° Southwest 360 414 34,000  Level FlightAware ADS-B
Wed 11:49:32 PM 38.0040 -87.7080 210° Southwest 361 415 34,000  Level FlightAware ADS-B
Wed 11:50:17 PM 37.9400 -87.7550 210° Southwest 356 410 34,000  Level FlightAware ADS-B
Wed 11:50:57 PM 37.8930 -87.8120 224° Southwest 340 391 34,000  Level FlightAware ADS-B
Wed 11:51:37 PM 37.8510 -87.8730 229° Southwest 342 394 34,000  Level FlightAware ADS-B
Wed 11:52:22 PM 37.8050 -87.9410 229° Southwest 343 395 34,000  Level FlightAware ADS-B
Wed 11:53:02 PM 37.7630 -88.0010 228° Southwest 345 397 34,000  Level FlightAware ADS-B
Wed 11:53:47 PM 37.7170 -88.0680 229° Southwest 345 397 34,000  Level FlightAware ADS-B
Wed 11:54:27 PM 37.6740 -88.1290 228° Southwest 346 398 34,000  Level FlightAware ADS-B
Wed 11:55:12 PM 37.6250 -88.1990 229° Southwest 347 399 34,000  Level FlightAware ADS-B
Wed 11:55:52 PM 37.5820 -88.2620 229° Southwest 348 400 34,000  Level FlightAware ADS-B
Wed 11:56:32 PM 37.5410 -88.3200 228° Southwest 350 403 34,000  Level FlightAware ADS-B
Wed 11:57:17 PM 37.4950 -88.3870 229° Southwest 350 403 34,000  Level FlightAware ADS-B
Wed 11:57:57 PM 37.4490 -88.4530 229° Southwest 350 403 34,000  Level FlightAware ADS-B
Wed 11:58:42 PM 37.3970 -88.5150 223° Southwest 360 414 34,000  Level FlightAware ADS-B
Wed 11:59:22 PM 37.3440 -88.5640 216° Southwest 374 430 34,000  Level FlightAware ADS-B
Thu 12:00:02 AM 37.2850 -88.6110 212° Southwest 376 433 34,000  Level FlightAware ADS-B
Thu 12:00:47 AM 37.2200 -88.6620 212° Southwest 377 434 34,000  Level FlightAware ADS-B
Thu 12:01:27 AM 37.1650 -88.7050 212° Southwest 377 434 34,000  Level FlightAware ADS-B
Thu 12:02:07 AM 37.1140 -88.7440 211° Southwest 377 434 34,000  Level FlightAware ADS-B
Thu 12:02:47 AM 37.0640 -88.7840 213° Southwest 377 434 34,000  Level FlightAware ADS-B
Thu 12:03:37 AM 37.0010 -88.8330 212° Southwest 377 434 34,000  Level FlightAware ADS-B
Thu 12:04:17 AM 36.9080 -88.9070 212° Southwest 381 438 34,000  Level FlightAware ADS-B
Thu 12:04:57 AM 36.8420 -88.9580 212° Southwest 382 440 34,000  Level FlightAware ADS-B
Thu 12:05:47 AM 36.7720 -89.0130 212° Southwest 382 440 34,000  Level FlightAware ADS-B
Thu 12:06:37 AM 36.7080 -89.0630 212° Southwest 382 440 34,000  Level FlightAware ADS-B
Thu 12:07:17 AM 36.6570 -89.1030 212° Southwest 382 440 34,000  Level FlightAware ADS-B
Thu 12:07:57 AM 36.6060 -89.1430 212° Southwest 382 440 34,000  Level FlightAware ADS-B
Thu 12:08:37 AM 36.5550 -89.1820 212° Southwest 382 440 34,000  Level FlightAware ADS-B
Thu 12:09:17 AM 36.5040 -89.2220 212° Southwest 382 440 34,000  Level FlightAware ADS-B
Thu 12:10:07 AM 36.4410 -89.2710 212° Southwest 382 440 34,000  Level FlightAware ADS-B
Thu 12:10:47 AM 36.3900 -89.3110 212° Southwest 382 440 34,000  Level FlightAware ADS-B
Thu 12:11:27 AM 36.3390 -89.3500 212° Southwest 382 440 34,000  Level FlightAware ADS-B
Thu 12:12:07 AM 36.2880 -89.3900 212° Southwest 382 440 34,000  Level FlightAware ADS-B
Thu 12:12:47 AM 36.2370 -89.4290 212° Southwest 382 440 34,000  Level FlightAware ADS-B
Thu 12:13:37 AM 36.1730 -89.4790 212° Southwest 382 440 34,000  Level FlightAware ADS-B
Thu 12:14:17 AM 36.1220 -89.5180 212° Southwest 382 440 34,000  Level FlightAware ADS-B
Thu 12:14:57 AM 36.0710 -89.5580 212° Southwest 382 440 34,000 -14,523 Level FlightAware ADS-B
Thu 12:15:45 AM 35.8586 -89.7117 212° Southwest 376 433 12,700 -12,778 Descending Memphis Center
Thu 12:16:45 AM 35.7861 -89.7658 211° Southwest 364 419 11,000 -1,300 Descending Memphis Center
Thu 12:17:45 AM 35.7175 -89.8175 211° Southwest 330 380 10,100 -1,200 Descending Memphis Center
Thu 12:18:45 AM 35.6361 -89.8383 192° South 282 325 8,600 -1,050 Descending Memphis Center
Thu 12:19:45 AM 35.5592 -89.8442 184° South 276 318 8,000 -250 Descending Memphis Center
Thu 12:20:45 AM 35.4817 -89.8217 167° South 282 325 8,100 -500 Climbing Memphis Center
Thu 12:21:45 AM 35.4044 -89.8017 168° South 287 330 7,000 -900 Descending Memphis Center
Thu 12:22:45 AM 35.3439 -89.7817 165° South 275 316 6,300 -800 Descending Memphis Center
Thu 12:23:45 AM 35.2853 -89.7542 159° South 247 284 5,400 -950 Descending Memphis Center
Thu 12:24:45 AM 35.2228 -89.7444 173° South 227 261 4,400 -750 Descending Memphis Center
Thu 12:25:45 AM 35.1561 -89.7475 182° South 227 261 3,900 -694 Descending Memphis Center
Thu 12:26:46 AM 35.0933 -89.7481 180° South 232 267 3,000 -400 Descending Memphis Center
Thu 12:27:45 AM 35.0561 -89.7889 222° Southwest 189 217 3,100 -403 Climbing Memphis Center
Thu 12:28:45 AM 35.0564 -89.8472 270° West 165 190 2,200 -912 Descending Memphis Center
Thu 12:29:50 AM 35.0500 -89.9000 262° West 159 183 1,200 -923 Descending KMEM
Thu 12:32:00 AM 35.0333 -89.9667 239° Southwest  Level FlightAware Approximate
Thu 12:39:00 AM 35.0424 -89.9767 239° Southwest  Level Estimated

Login

Don't have an account? Register now (free) for customized features, flight alerts, and more!